createdAt,value
2018-08-10T00:00:21.953Z,1007.43
2018-08-10T00:01:02.492Z,1007.37
2018-08-10T00:01:42.961Z,1007.46
2018-08-10T00:02:23.488Z,1007.37
2018-08-10T00:03:03.938Z,1007.44
2018-08-10T00:03:44.408Z,1007.43
2018-08-10T00:04:24.902Z,1007.46
2018-08-10T00:05:05.410Z,1007.5
2018-08-10T00:05:45.896Z,1007.42
2018-08-10T00:06:26.421Z,1007.46
2018-08-10T00:07:06.876Z,1007.41
2018-08-10T00:07:47.352Z,1007.43
2018-08-10T00:08:27.845Z,1007.47
2018-08-10T00:09:08.345Z,1007.5
2018-08-10T00:09:48.802Z,1007.48
2018-08-10T00:10:29.291Z,1007.51
2018-08-10T00:11:09.794Z,1007.61
2018-08-10T00:11:50.272Z,1007.63
2018-08-10T00:12:30.801Z,1007.59
2018-08-10T00:13:11.293Z,1007.6
2018-08-10T00:13:51.809Z,1007.59
2018-08-10T00:14:32.280Z,1007.66
2018-08-10T00:15:12.737Z,1007.59
2018-08-10T00:15:53.259Z,1007.67
2018-08-10T00:16:33.747Z,1007.65
2018-08-10T00:17:14.277Z,1007.6
2018-08-10T00:17:54.767Z,1007.65
2018-08-10T00:18:35.230Z,1007.74
2018-08-10T00:19:15.763Z,1007.72
2018-08-10T00:19:56.175Z,1007.79
2018-08-10T00:20:36.726Z,1007.73
2018-08-10T00:21:17.173Z,1007.75
2018-08-10T00:21:57.685Z,1007.76
2018-08-10T00:22:38.151Z,1007.8
2018-08-10T00:23:18.667Z,1007.8
2018-08-10T00:23:59.130Z,1007.79
2018-08-10T00:24:39.609Z,1007.83
2018-08-10T00:25:20.136Z,1007.75
2018-08-10T00:26:00.618Z,1007.89
2018-08-10T00:26:41.116Z,1007.86
2018-08-10T00:27:21.630Z,1007.82
2018-08-10T00:28:02.097Z,1007.87
2018-08-10T00:28:42.584Z,1007.93
2018-08-10T00:29:23.071Z,1007.94
2018-08-10T00:30:03.569Z,1007.91
2018-08-10T00:30:44.076Z,1008.02
2018-08-10T00:31:24.610Z,1007.92
2018-08-10T00:32:05.109Z,1008.01
2018-08-10T00:32:45.614Z,1008.01
2018-08-10T00:33:26.046Z,1007.98
2018-08-10T00:34:06.548Z,1008
2018-08-10T00:34:47.023Z,1007.98
2018-08-10T00:35:27.551Z,1008
2018-08-10T00:36:08.010Z,1008.05
2018-08-10T00:36:48.499Z,1008.06
2018-08-10T00:37:28.990Z,1008.05
2018-08-10T00:38:09.489Z,1008.06
2018-08-10T00:38:49.967Z,1008.07
2018-08-10T00:39:30.486Z,1008.06
2018-08-10T00:40:10.996Z,1008.08
2018-08-10T00:40:51.485Z,1008.1
2018-08-10T00:41:31.989Z,1008.09
2018-08-10T00:42:12.506Z,1008.06
2018-08-10T00:42:52.955Z,1008.11
2018-08-10T00:43:33.467Z,1008.14
2018-08-10T00:44:13.989Z,1008.1
2018-08-10T00:44:54.450Z,1008.12
2018-08-10T00:45:34.939Z,1008.14
2018-08-10T00:46:15.408Z,1008.13
2018-08-10T00:46:55.931Z,1008.16
2018-08-10T00:47:36.442Z,1008.14
2018-08-10T00:48:16.975Z,1008.18
2018-08-10T00:48:57.416Z,1008.16
2018-08-10T00:49:37.924Z,1008.16
2018-08-10T00:50:18.366Z,1008.2
2018-08-10T00:50:58.886Z,1008.24
2018-08-10T00:51:39.336Z,1008.27
2018-08-10T00:52:19.854Z,1008.25
2018-08-10T00:53:00.350Z,1008.24
2018-08-10T00:53:40.841Z,1008.31
2018-08-10T00:54:21.627Z,1008.32
2018-08-10T00:55:02.044Z,1008.28
2018-08-10T00:55:42.557Z,1008.34
2018-08-10T00:56:23.069Z,1008.3
2018-08-10T00:57:03.513Z,1008.32
2018-08-10T00:57:43.970Z,1008.34
2018-08-10T00:58:24.448Z,1008.33
2018-08-10T00:59:04.909Z,1008.31
2018-08-10T00:59:45.433Z,1008.37
2018-08-10T01:00:25.928Z,1008.36
2018-08-10T01:01:06.357Z,1008.39
2018-08-10T01:01:46.881Z,1008.36
2018-08-10T01:02:27.420Z,1008.46
2018-08-10T01:03:07.868Z,1008.39
2018-08-10T01:03:48.342Z,1008.35
2018-08-10T01:04:28.858Z,1008.35
2018-08-10T01:05:09.362Z,1008.44
2018-08-10T01:05:49.826Z,1008.46
2018-08-10T01:06:30.314Z,1008.42
2018-08-10T01:07:10.802Z,1008.45
2018-08-10T01:07:51.272Z,1008.46
2018-08-10T01:08:31.795Z,1008.48
2018-08-10T01:09:12.272Z,1008.46
2018-08-10T01:09:52.775Z,1008.5
2018-08-10T01:10:33.276Z,1008.57
2018-08-10T01:11:13.735Z,1008.55
2018-08-10T01:11:54.246Z,1008.55
2018-08-10T01:12:34.717Z,1008.59
2018-08-10T01:13:15.266Z,1008.59
2018-08-10T01:13:55.695Z,1008.6
2018-08-10T01:14:36.249Z,1008.57
2018-08-10T01:15:16.715Z,1008.62
2018-08-10T01:15:57.177Z,1008.66
2018-08-10T01:16:37.730Z,1008.61
2018-08-10T01:17:18.231Z,1008.61
2018-08-10T01:17:58.720Z,1008.59
2018-08-10T01:18:39.168Z,1008.59
2018-08-10T01:19:19.753Z,1008.6
2018-08-10T01:20:00.177Z,1008.6
2018-08-10T01:20:40.691Z,1008.6
2018-08-10T01:21:21.158Z,1008.6
2018-08-10T01:22:01.630Z,1008.63
2018-08-10T01:22:42.202Z,1008.68
2018-08-10T01:23:22.648Z,1008.65
2018-08-10T01:24:03.144Z,1008.69
2018-08-10T01:24:43.619Z,1008.69
2018-08-10T01:25:24.138Z,1008.7
2018-08-10T01:26:04.569Z,1008.7
2018-08-10T01:26:45.059Z,1008.73
2018-08-10T01:27:25.536Z,1008.71
2018-08-10T01:28:06.005Z,1008.72
2018-08-10T01:28:46.698Z,1008.73
2018-08-10T01:29:27.075Z,1008.76
2018-08-10T01:30:07.550Z,1008.76
2018-08-10T01:30:48.049Z,1008.81
2018-08-10T01:31:28.567Z,1008.83
2018-08-10T01:32:09.051Z,1008.8
2018-08-10T01:32:49.513Z,1008.84
2018-08-10T01:33:29.996Z,1008.85
2018-08-10T01:34:10.534Z,1008.87
2018-08-10T01:34:51.017Z,1008.87
2018-08-10T01:35:31.522Z,1008.89
2018-08-10T01:36:12.030Z,1008.91
2018-08-10T01:36:52.557Z,1008.96
2018-08-10T01:37:32.991Z,1008.95
2018-08-10T01:38:13.480Z,1008.97
2018-08-10T01:38:53.963Z,1008.96
2018-08-10T01:39:34.491Z,1008.98
2018-08-10T01:40:14.929Z,1008.94
2018-08-10T01:40:55.401Z,1009.05
2018-08-10T01:41:35.926Z,1008.95
2018-08-10T01:42:16.394Z,1009.04
2018-08-10T01:42:56.907Z,1008.98
2018-08-10T01:43:37.428Z,1009.02
2018-08-10T01:44:17.960Z,1009.03
2018-08-10T01:44:58.453Z,1009.02
2018-08-10T01:45:38.937Z,1009.07
2018-08-10T01:46:19.426Z,1009.08
2018-08-10T01:46:59.912Z,1009.1
2018-08-10T01:47:40.438Z,1009.11
2018-08-10T01:48:20.894Z,1009.1
2018-08-10T01:49:01.416Z,1009.06
2018-08-10T01:49:41.896Z,1009.05
2018-08-10T01:50:22.352Z,1009.02
2018-08-10T01:51:02.838Z,1009.03
2018-08-10T01:51:43.384Z,1009.05
2018-08-10T01:52:23.841Z,1009.03
2018-08-10T01:53:04.339Z,1009.04
2018-08-10T01:53:44.848Z,1009.02
2018-08-10T01:54:25.329Z,1009.06
2018-08-10T01:55:05.828Z,1009.09
2018-08-10T01:55:46.340Z,1009.08
2018-08-10T01:56:26.789Z,1009.13
2018-08-10T01:57:07.402Z,1009.11
2018-08-10T01:57:47.841Z,1009.09
2018-08-10T01:58:28.477Z,1009.05
2018-08-10T01:59:08.899Z,1009.06
2018-08-10T01:59:49.367Z,1009.06
2018-08-10T02:00:29.983Z,1009.05
2018-08-10T02:01:10.497Z,1009.04
2018-08-10T02:01:51.100Z,1009.08
2018-08-10T02:02:31.562Z,1009.1
2018-08-10T02:03:12.041Z,1009.14
2018-08-10T02:03:52.551Z,1009.12
2018-08-10T02:04:33.072Z,1009.13
2018-08-10T02:05:13.539Z,1009.16
2018-08-10T02:05:54.083Z,1009.15
2018-08-10T02:06:34.603Z,1009.22
2018-08-10T02:07:15.135Z,1009.2
2018-08-10T02:07:55.626Z,1009.19
2018-08-10T02:08:36.108Z,1009.16
2018-08-10T02:09:16.562Z,1009.19
2018-08-10T02:09:57.059Z,1009.2
2018-08-10T02:10:37.584Z,1009.18
2018-08-10T02:11:18.100Z,1009.16
2018-08-10T02:11:58.597Z,1009.11
2018-08-10T02:12:39.098Z,1009.17
2018-08-10T02:13:19.541Z,1009.1
2018-08-10T02:14:00.040Z,1009.17
2018-08-10T02:14:40.539Z,1009.18
2018-08-10T02:15:21.061Z,1009.14
2018-08-10T02:16:01.524Z,1009.24
2018-08-10T02:16:42.047Z,1009.15
2018-08-10T02:17:22.615Z,1009.16
2018-08-10T02:18:03.042Z,1009.19
2018-08-10T02:18:43.587Z,1009.18
2018-08-10T02:19:24.049Z,1009.19
2018-08-10T02:20:04.567Z,1009.16
2018-08-10T02:20:45.090Z,1009.18
2018-08-10T02:21:25.548Z,1009.17
2018-08-10T02:22:06.031Z,1009.13
2018-08-10T02:22:46.576Z,1009.17
2018-08-10T02:23:27.005Z,1009.15
2018-08-10T02:24:07.535Z,1009.22
2018-08-10T02:24:48.071Z,1009.16
2018-08-10T02:25:28.481Z,1009.12
2018-08-10T02:26:09.078Z,1009.18
2018-08-10T02:26:49.735Z,1009.16
2018-08-10T02:27:30.220Z,1009.16
2018-08-10T02:28:10.699Z,1009.17
2018-08-10T02:28:51.228Z,1009.26
2018-08-10T02:29:31.705Z,1009.2
2018-08-10T02:30:12.181Z,1009.23
2018-08-10T02:30:52.630Z,1009.24
2018-08-10T02:31:33.118Z,1009.25
2018-08-10T02:32:13.618Z,1009.23
2018-08-10T02:32:54.053Z,1009.24
2018-08-10T02:33:34.572Z,1009.27
2018-08-10T02:34:15.053Z,1009.25
2018-08-10T02:34:55.573Z,1009.24
2018-08-10T02:35:36.036Z,1009.33
2018-08-10T02:36:16.508Z,1009.31
2018-08-10T02:36:57.266Z,1009.29
2018-08-10T02:37:37.801Z,1009.23
2018-08-10T02:38:18.263Z,1009.31
2018-08-10T02:38:58.752Z,1009.3
2018-08-10T02:39:39.248Z,1009.29
2018-08-10T02:40:19.809Z,1009.32
2018-08-10T02:41:00.337Z,1009.26
2018-08-10T02:41:40.803Z,1009.3
2018-08-10T02:42:21.271Z,1009.33
2018-08-10T02:43:01.983Z,1009.31
2018-08-10T02:43:42.513Z,1009.39
2018-08-10T02:44:23.060Z,1009.32
2018-08-10T02:45:03.537Z,1009.35
2018-08-10T02:45:44.032Z,1009.34
2018-08-10T02:46:29.935Z,1009.37
2018-08-10T02:47:10.399Z,1009.38
2018-08-10T02:47:50.900Z,1009.35
2018-08-10T02:48:31.350Z,1009.36
2018-08-10T02:49:12.258Z,1009.35
2018-08-10T02:49:52.651Z,1009.41
2018-08-10T02:50:33.146Z,1009.45
2018-08-10T02:51:13.665Z,1009.48
2018-08-10T02:51:54.179Z,1009.47
2018-08-10T02:52:34.678Z,1009.47
2018-08-10T02:53:15.156Z,1009.48
2018-08-10T02:53:55.617Z,1009.54
2018-08-10T02:54:36.095Z,1009.49
2018-08-10T02:55:16.572Z,1009.54
2018-08-10T02:55:57.082Z,1009.52
2018-08-10T02:56:37.582Z,1009.52
2018-08-10T02:57:18.027Z,1009.5
2018-08-10T02:57:58.540Z,1009.55
2018-08-10T02:58:39.006Z,1009.57
2018-08-10T02:59:19.513Z,1009.54
2018-08-10T03:00:00.009Z,1009.65
2018-08-10T03:00:40.480Z,1009.6
2018-08-10T03:01:20.994Z,1009.65
2018-08-10T03:02:01.455Z,1009.58
2018-08-10T03:02:41.963Z,1009.62
2018-08-10T03:03:22.460Z,1009.59
2018-08-10T03:04:02.897Z,1009.61
2018-08-10T03:04:43.573Z,1009.64
2018-08-10T03:05:24.018Z,1009.58
2018-08-10T03:06:04.582Z,1009.59
2018-08-10T03:06:45.075Z,1009.6
2018-08-10T03:07:25.577Z,1009.6
2018-08-10T03:08:06.090Z,1009.63
2018-08-10T03:08:46.534Z,1009.62
2018-08-10T03:09:27.025Z,1009.62
2018-08-10T03:10:07.538Z,1009.7
2018-08-10T03:10:48.023Z,1009.67
2018-08-10T03:11:28.533Z,1009.7
2018-08-10T03:12:09.014Z,1009.61
2018-08-10T03:12:49.556Z,1009.69
2018-08-10T03:13:30.009Z,1009.67
2018-08-10T03:14:10.472Z,1009.75
2018-08-10T03:14:50.971Z,1009.74
2018-08-10T03:15:31.507Z,1009.75
2018-08-10T03:16:12.186Z,1009.76
2018-08-10T03:16:52.622Z,1009.74
2018-08-10T03:17:33.164Z,1009.74
2018-08-10T03:18:13.607Z,1009.71
2018-08-10T03:18:54.181Z,1009.74
2018-08-10T03:19:34.714Z,1009.78
2018-08-10T03:20:15.194Z,1009.73
2018-08-10T03:20:55.785Z,1009.76
2018-08-10T03:21:36.323Z,1009.77
2018-08-10T03:22:16.781Z,1009.79
2018-08-10T03:22:57.277Z,1009.81
2018-08-10T03:23:37.801Z,1009.8
2018-08-10T03:24:18.326Z,1009.82
2018-08-10T03:24:58.799Z,1009.82
2018-08-10T03:25:39.279Z,1009.83
2018-08-10T03:26:19.734Z,1009.85
2018-08-10T03:27:00.264Z,1009.85
2018-08-10T03:27:40.731Z,1009.86
2018-08-10T03:28:21.231Z,1009.87
2018-08-10T03:29:01.680Z,1009.87
2018-08-10T03:29:42.222Z,1009.92
2018-08-10T03:30:22.735Z,1009.92
2018-08-10T03:31:03.173Z,1009.94
2018-08-10T03:31:43.682Z,1009.96
2018-08-10T03:32:24.274Z,1009.95
2018-08-10T03:33:04.727Z,1009.94
2018-08-10T03:33:45.190Z,1009.97
2018-08-10T03:34:25.686Z,1009.99
2018-08-10T03:35:06.133Z,1010.02
2018-08-10T03:35:46.687Z,1010.06
2018-08-10T03:36:27.117Z,1010.03
2018-08-10T03:37:07.634Z,1010.07
2018-08-10T03:37:48.114Z,1010.06
2018-08-10T03:38:28.615Z,1010.11
2018-08-10T03:39:09.111Z,1010.06
2018-08-10T03:39:49.607Z,1010.1
2018-08-10T03:40:30.091Z,1010.14
2018-08-10T03:41:10.604Z,1010.13
2018-08-10T03:41:51.054Z,1010.1
2018-08-10T03:42:31.599Z,1010.15
2018-08-10T03:43:12.045Z,1010.13
2018-08-10T03:43:52.561Z,1010.11
2018-08-10T03:44:33.041Z,1010.14
2018-08-10T03:45:13.488Z,1010.14
2018-08-10T03:45:53.949Z,1010.13
2018-08-10T03:46:34.462Z,1010.16
2018-08-10T03:47:14.939Z,1010.17
2018-08-10T03:47:55.398Z,1010.18
2018-08-10T03:48:35.900Z,1010.19
2018-08-10T03:49:16.402Z,1010.18
2018-08-10T03:49:57.076Z,1010.2
2018-08-10T03:50:37.366Z,1010.21
2018-08-10T03:51:17.898Z,1010.21
2018-08-10T03:51:58.359Z,1010.21
2018-08-10T03:52:38.856Z,1010.24
2018-08-10T03:53:19.360Z,1010.21
2018-08-10T03:53:59.851Z,1010.22
2018-08-10T03:54:41.118Z,1010.25
2018-08-10T03:55:21.072Z,1010.18
2018-08-10T03:56:01.569Z,1010.23
2018-08-10T03:56:42.060Z,1010.27
2018-08-10T03:57:22.536Z,1010.3
2018-08-10T03:58:03.010Z,1010.25
2018-08-10T03:58:43.514Z,1010.29
2018-08-10T03:59:24.007Z,1010.32
2018-08-10T04:00:04.526Z,1010.33
2018-08-10T04:00:44.988Z,1010.29
2018-08-10T04:01:25.469Z,1010.31
2018-08-10T04:02:05.956Z,1010.29
2018-08-10T04:02:46.460Z,1010.33
2018-08-10T04:03:26.953Z,1010.31
2018-08-10T04:04:07.411Z,1010.33
2018-08-10T04:04:52.731Z,1010.35
2018-08-10T04:06:48.505Z,1010.31
2018-08-10T04:07:29.014Z,1010.31
2018-08-10T04:08:09.542Z,1010.33
2018-08-10T04:08:50.828Z,1010.3
2018-08-10T04:09:31.290Z,1010.35
2018-08-10T04:10:11.783Z,1010.33
2018-08-10T04:10:52.273Z,1010.31
2018-08-10T04:11:32.773Z,1010.33
2018-08-10T04:12:13.263Z,1010.34
2018-08-10T04:12:53.743Z,1010.36
2018-08-10T04:13:34.217Z,1010.35
2018-08-10T04:14:14.695Z,1010.38
2018-08-10T04:14:55.185Z,1010.4
2018-08-10T04:15:35.651Z,1010.38
2018-08-10T04:16:16.226Z,1010.44
2018-08-10T04:16:56.705Z,1010.47
2018-08-10T04:17:37.173Z,1010.48
2018-08-10T04:18:17.640Z,1010.46
2018-08-10T04:18:58.156Z,1010.48
2018-08-10T04:19:38.620Z,1010.51
2018-08-10T04:20:19.128Z,1010.49
2018-08-10T04:20:59.657Z,1010.52
2018-08-10T04:21:40.144Z,1010.5
2018-08-10T04:22:20.629Z,1010.55
2018-08-10T04:23:01.096Z,1010.52
2018-08-10T04:23:41.622Z,1010.55
2018-08-10T04:24:22.082Z,1010.51
2018-08-10T04:25:02.634Z,1010.53
2018-08-10T04:25:43.091Z,1010.57
2018-08-10T04:26:23.573Z,1010.56
2018-08-10T04:27:04.028Z,1010.58
2018-08-10T04:27:44.538Z,1010.59
2018-08-10T04:28:25.001Z,1010.61
2018-08-10T04:29:05.518Z,1010.66
2018-08-10T04:29:45.983Z,1010.59
2018-08-10T04:30:26.524Z,1010.65
2018-08-10T04:31:06.962Z,1010.64
2018-08-10T04:31:47.441Z,1010.62
2018-08-10T04:32:27.936Z,1010.65
2018-08-10T04:33:08.445Z,1010.68
2018-08-10T04:33:48.922Z,1010.64
2018-08-10T04:34:29.398Z,1010.69
2018-08-10T04:35:09.922Z,1010.7
2018-08-10T04:35:50.455Z,1010.69
2018-08-10T04:36:30.936Z,1010.65
2018-08-10T04:37:11.369Z,1010.72
2018-08-10T04:37:51.830Z,1010.73
2018-08-10T04:38:32.385Z,1010.74
2018-08-10T04:39:12.848Z,1010.74
2018-08-10T04:39:53.337Z,1010.76
2018-08-10T04:40:33.806Z,1010.78
2018-08-10T04:41:14.293Z,1010.8
2018-08-10T04:41:54.799Z,1010.81
2018-08-10T04:42:35.306Z,1010.78
2018-08-10T04:43:15.795Z,1010.76
2018-08-10T04:43:56.301Z,1010.82
2018-08-10T04:44:36.811Z,1010.8
2018-08-10T04:45:17.274Z,1010.82
2018-08-10T04:45:57.781Z,1010.83
2018-08-10T04:46:38.237Z,1010.87
2018-08-10T04:47:18.720Z,1010.88
2018-08-10T04:47:59.217Z,1010.86
2018-08-10T04:48:39.697Z,1010.93
2018-08-10T04:49:20.142Z,1010.96
2018-08-10T04:50:00.647Z,1010.96
2018-08-10T04:50:41.159Z,1011
2018-08-10T04:51:21.684Z,1011.01
2018-08-10T04:52:02.158Z,1010.96
2018-08-10T04:52:42.602Z,1010.99
2018-08-10T04:53:23.115Z,1010.98
2018-08-10T04:54:03.611Z,1011
2018-08-10T04:54:44.088Z,1010.99
2018-08-10T04:55:24.615Z,1010.98
2018-08-10T04:56:05.181Z,1011.01
2018-08-10T04:56:45.591Z,1011.02
2018-08-10T04:57:26.108Z,1010.99
2018-08-10T04:58:06.585Z,1011.06
2018-08-10T04:58:47.077Z,1011.07
2018-08-10T04:59:27.498Z,1011.08
2018-08-10T05:00:08.026Z,1011.08
2018-08-10T05:00:48.467Z,1011.06
2018-08-10T05:01:29.014Z,1011.01
2018-08-10T05:02:09.499Z,1011.02
2018-08-10T05:02:49.921Z,1011
2018-08-10T05:03:30.416Z,1011.06
2018-08-10T05:04:11.071Z,1011.09
2018-08-10T05:04:51.548Z,1011.11
2018-08-10T05:05:32.050Z,1011.09
2018-08-10T05:06:12.562Z,1011.09
2018-08-10T05:06:53.066Z,1011.11
2018-08-10T05:07:33.529Z,1011.13
2018-08-10T05:08:14.136Z,1011.09
2018-08-10T05:08:54.699Z,1011.07
2018-08-10T05:09:35.141Z,1011.06
2018-08-10T05:10:15.593Z,1011.09
2018-08-10T05:10:56.128Z,1011.08
2018-08-10T05:11:36.606Z,1011.13
2018-08-10T05:12:17.075Z,1011.1
2018-08-10T05:12:57.562Z,1011.09
2018-08-10T05:13:38.032Z,1011.13
2018-08-10T05:14:18.556Z,1011.14
2018-08-10T05:14:59.057Z,1011.12
2018-08-10T05:15:39.519Z,1011.16
2018-08-10T05:16:20.045Z,1011.12
2018-08-10T05:17:00.528Z,1011.09
2018-08-10T05:17:41.030Z,1011.14
2018-08-10T05:18:21.516Z,1011.12
2018-08-10T05:19:02.016Z,1011.15
2018-08-10T05:19:42.524Z,1011.18
2018-08-10T05:20:23.011Z,1011.18
2018-08-10T05:21:03.513Z,1011.2
2018-08-10T05:21:43.951Z,1011.22
2018-08-10T05:22:24.534Z,1011.2
2018-08-10T05:23:04.995Z,1011.23
2018-08-10T05:23:45.497Z,1011.21
2018-08-10T05:24:25.980Z,1011.27
2018-08-10T05:25:06.471Z,1011.27
2018-08-10T05:25:47.028Z,1011.29
2018-08-10T05:26:27.477Z,1011.3
2018-08-10T05:27:07.993Z,1011.35
2018-08-10T05:27:48.567Z,1011.31
2018-08-10T05:28:29.021Z,1011.28
2018-08-10T05:29:09.538Z,1011.32
2018-08-10T05:29:49.984Z,1011.35
2018-08-10T05:30:30.487Z,1011.38
2018-08-10T05:31:10.977Z,1011.4
2018-08-10T05:31:51.460Z,1011.41
2018-08-10T05:32:31.932Z,1011.41
2018-08-10T05:33:12.427Z,1011.44
2018-08-10T05:33:52.922Z,1011.44
2018-08-10T05:34:33.408Z,1011.43
2018-08-10T05:35:14.041Z,1011.48
2018-08-10T05:35:54.617Z,1011.48
2018-08-10T05:36:35.208Z,1011.44
2018-08-10T05:37:15.606Z,1011.53
2018-08-10T05:37:56.089Z,1011.51
2018-08-10T05:38:36.578Z,1011.5
2018-08-10T05:39:17.065Z,1011.58
2018-08-10T05:39:57.548Z,1011.51
2018-08-10T05:40:38.029Z,1011.53
2018-08-10T05:41:18.547Z,1011.53
2018-08-10T05:41:59.015Z,1011.56
2018-08-10T05:42:39.496Z,1011.55
2018-08-10T05:43:19.954Z,1011.53
2018-08-10T05:44:00.494Z,1011.56
2018-08-10T05:44:40.992Z,1011.53
2018-08-10T05:45:21.447Z,1011.58
2018-08-10T05:46:01.916Z,1011.57
2018-08-10T05:46:42.416Z,1011.57
2018-08-10T05:47:22.937Z,1011.56
2018-08-10T05:48:03.442Z,1011.58
2018-08-10T05:48:44.092Z,1011.6
2018-08-10T05:49:24.602Z,1011.59
2018-08-10T05:50:05.058Z,1011.54
2018-08-10T05:50:45.546Z,1011.57
2018-08-10T05:51:26.042Z,1011.59
2018-08-10T05:52:06.554Z,1011.56
2018-08-10T05:52:47.035Z,1011.6
2018-08-10T05:53:27.509Z,1011.6
2018-08-10T05:54:08.033Z,1011.56
2018-08-10T05:54:48.551Z,1011.56
2018-08-10T05:55:29.002Z,1011.61
2018-08-10T05:56:09.490Z,1011.62
2018-08-10T05:56:50.153Z,1011.61
2018-08-10T05:57:30.708Z,1011.63
2018-08-10T05:58:11.113Z,1011.64
2018-08-10T05:58:51.659Z,1011.63
2018-08-10T05:59:32.106Z,1011.64
2018-08-10T06:00:12.590Z,1011.63
2018-08-10T06:00:53.098Z,1011.64
2018-08-10T06:01:33.568Z,1011.62
2018-08-10T06:02:14.066Z,1011.66
2018-08-10T06:02:54.582Z,1011.68
2018-08-10T06:03:35.158Z,1011.63
2018-08-10T06:04:15.581Z,1011.67
2018-08-10T06:04:56.103Z,1011.68
2018-08-10T06:05:36.600Z,1011.68
2018-08-10T06:06:17.090Z,1011.67
2018-08-10T06:06:57.538Z,1011.67
2018-08-10T06:07:38.028Z,1011.72
2018-08-10T06:08:18.500Z,1011.67
2018-08-10T06:08:59.027Z,1011.66
2018-08-10T06:09:39.570Z,1011.68
2018-08-10T06:10:20.017Z,1011.67
2018-08-10T06:11:00.482Z,1011.65
2018-08-10T06:11:41.029Z,1011.64
2018-08-10T06:12:21.536Z,1011.6
2018-08-10T06:13:01.989Z,1011.65
2018-08-10T06:13:42.503Z,1011.64
2018-08-10T06:14:22.980Z,1011.65
2018-08-10T06:15:03.441Z,1011.62
2018-08-10T06:15:43.929Z,1011.63
2018-08-10T06:16:24.459Z,1011.64
2018-08-10T06:17:04.935Z,1011.66
2018-08-10T06:17:45.390Z,1011.64
2018-08-10T06:18:25.872Z,1011.67
2018-08-10T06:19:06.328Z,1011.68
2018-08-10T06:19:46.866Z,1011.63
2018-08-10T06:20:27.304Z,1011.65
2018-08-10T06:21:07.826Z,1011.6
2018-08-10T06:21:48.347Z,1011.59
2018-08-10T06:22:28.841Z,1011.59
2018-08-10T06:23:09.303Z,1011.55
2018-08-10T06:23:49.788Z,1011.56
2018-08-10T06:24:30.324Z,1011.56
2018-08-10T06:25:10.859Z,1011.58
2018-08-10T06:25:51.273Z,1011.5
2018-08-10T06:26:31.727Z,1011.61
2018-08-10T06:27:12.261Z,1011.61
2018-08-10T06:27:52.770Z,1011.6
2018-08-10T06:28:33.198Z,1011.57
2018-08-10T06:29:13.784Z,1011.61
2018-08-10T06:29:54.253Z,1011.6
2018-08-10T06:30:34.726Z,1011.61
2018-08-10T06:31:15.198Z,1011.63
2018-08-10T06:31:55.701Z,1011.63
2018-08-10T06:32:36.210Z,1011.64
2018-08-10T06:33:16.665Z,1011.66
2018-08-10T06:33:57.337Z,1011.71
2018-08-10T06:34:37.645Z,1011.68
2018-08-10T06:35:18.185Z,1011.7
2018-08-10T06:35:58.644Z,1011.71
2018-08-10T06:36:39.121Z,1011.7
2018-08-10T06:37:19.625Z,1011.71
2018-08-10T06:38:00.158Z,1011.67
2018-08-10T06:38:40.647Z,1011.65
2018-08-10T06:39:21.124Z,1011.67
2018-08-10T06:40:01.631Z,1011.68
2018-08-10T06:40:42.072Z,1011.69
2018-08-10T06:41:22.590Z,1011.73
2018-08-10T06:42:03.116Z,1011.71
2018-08-10T06:42:43.609Z,1011.76
2018-08-10T06:43:24.067Z,1011.79
2018-08-10T06:44:04.625Z,1011.77
2018-08-10T06:44:45.068Z,1011.79
2018-08-10T06:45:25.572Z,1011.82
2018-08-10T06:46:06.058Z,1011.84
2018-08-10T06:46:46.584Z,1011.85
2018-08-10T06:47:27.056Z,1011.83
2018-08-10T06:48:07.550Z,1011.83
2018-08-10T06:48:48.045Z,1011.79
2018-08-10T06:49:28.538Z,1011.87
2018-08-10T06:50:09.102Z,1011.86
2018-08-10T06:50:49.606Z,1011.82
2018-08-10T06:51:30.102Z,1011.9
2018-08-10T06:52:10.590Z,1011.91
2018-08-10T06:52:51.142Z,1011.92
2018-08-10T06:53:31.553Z,1011.9
2018-08-10T06:54:12.088Z,1011.89
2018-08-10T06:54:52.542Z,1011.87
2018-08-10T06:55:33.020Z,1011.86
2018-08-10T06:56:13.599Z,1011.86
2018-08-10T06:56:54.006Z,1011.89
2018-08-10T06:57:34.509Z,1011.89
2018-08-10T06:58:15.024Z,1011.86
2018-08-10T06:58:55.529Z,1011.84
2018-08-10T06:59:35.978Z,1011.87
2018-08-10T07:00:16.467Z,1011.89
2018-08-10T07:00:57.029Z,1011.85
2018-08-10T07:01:37.560Z,1011.89
2018-08-10T07:02:18.022Z,1011.84
2018-08-10T07:02:58.490Z,1011.91
2018-08-10T07:03:38.988Z,1011.91
2018-08-10T07:04:19.483Z,1011.93
2018-08-10T07:04:59.954Z,1011.94
2018-08-10T07:05:40.469Z,1011.92
2018-08-10T07:06:30.014Z,1011.92
2018-08-10T07:07:10.517Z,1011.96
2018-08-10T07:07:52.158Z,1011.92
2018-08-10T07:08:32.541Z,1011.94
2018-08-10T07:09:13.061Z,1011.96
2018-08-10T07:09:53.603Z,1011.94
2018-08-10T07:10:34.025Z,1011.91
2018-08-10T07:11:14.541Z,1011.93
2018-08-10T07:11:55.064Z,1011.93
2018-08-10T07:12:35.579Z,1011.91
2018-08-10T07:13:16.166Z,1011.93
2018-08-10T07:13:56.508Z,1011.95
2018-08-10T07:14:37.051Z,1011.92
2018-08-10T07:15:17.491Z,1011.92
2018-08-10T07:15:58.016Z,1011.94
2018-08-10T07:16:38.481Z,1011.96
2018-08-10T07:17:18.959Z,1011.96
2018-08-10T07:17:59.478Z,1011.98
2018-08-10T07:18:39.961Z,1011.98
2018-08-10T07:19:20.481Z,1011.88
2018-08-10T07:20:00.929Z,1011.9
2018-08-10T07:20:41.435Z,1011.92
2018-08-10T07:21:21.889Z,1011.96
2018-08-10T07:22:02.381Z,1011.91
2018-08-10T07:22:42.869Z,1011.91
2018-08-10T07:23:23.742Z,1011.96
2018-08-10T07:24:04.287Z,1011.93
2018-08-10T07:24:44.731Z,1011.98
2018-08-10T07:25:25.252Z,1011.94
2018-08-10T07:26:05.702Z,1011.97
2018-08-10T07:26:46.206Z,1011.94
2018-08-10T07:27:26.710Z,1011.91
2018-08-10T07:28:07.524Z,1011.95
2018-08-10T07:28:47.978Z,1011.97
2018-08-10T07:29:28.486Z,1011.95
2018-08-10T07:30:13.611Z,1011.97
2018-08-10T07:30:54.113Z,1011.98
2018-08-10T07:31:34.650Z,1012.03
2018-08-10T07:32:15.132Z,1012.01
2018-08-10T07:32:55.638Z,1011.99
2018-08-10T07:33:36.149Z,1012
2018-08-10T07:34:16.649Z,1011.92
2018-08-10T07:34:57.130Z,1012
2018-08-10T07:35:37.621Z,1011.98
2018-08-10T07:36:18.077Z,1012
2018-08-10T07:37:01.038Z,1012.04
2018-08-10T07:37:42.267Z,1012.08
2018-08-10T07:38:23.772Z,1012
2018-08-10T07:39:04.263Z,1012.04
2018-08-10T07:39:44.724Z,1012.03
2018-08-10T07:40:25.218Z,1012.01
2018-08-10T07:41:05.695Z,1011.99
2018-08-10T07:41:46.208Z,1011.98
2018-08-10T07:42:26.855Z,1012.02
2018-08-10T07:43:09.991Z,1012.06
2018-08-10T07:43:56.726Z,1012.08
2018-08-10T07:46:01.698Z,1012.07
2018-08-10T07:46:42.203Z,1012.07
2018-08-10T07:47:22.780Z,1012.04
2018-08-10T07:48:03.255Z,1012
2018-08-10T07:48:43.868Z,1011.99
2018-08-10T07:50:36.956Z,1012.05
2018-08-10T07:51:17.665Z,1012.06
2018-08-10T07:51:59.102Z,1012.05
2018-08-10T07:52:39.642Z,1012.07
2018-08-10T07:53:20.186Z,1012.09
2018-08-10T07:54:00.707Z,1012.05
2018-08-10T07:54:41.242Z,1012.07
2018-08-10T07:55:21.702Z,1012.09
2018-08-10T07:56:02.320Z,1012.15
2018-08-10T07:56:42.959Z,1012.19
2018-08-10T07:57:23.408Z,1012.14
2018-08-10T07:58:03.900Z,1012.14
2018-08-10T07:58:44.355Z,1012.08
2018-08-10T07:59:25.092Z,1012.13
2018-08-10T08:00:05.579Z,1012.12
2018-08-10T08:00:46.054Z,1012.07
2018-08-10T08:01:26.636Z,1012.1
2018-08-10T08:02:07.125Z,1012.11
2018-08-10T08:02:47.614Z,1012.14
2018-08-10T08:03:28.098Z,1012.12
2018-08-10T08:04:08.556Z,1012.16
2018-08-10T08:04:49.074Z,1012.19
2018-08-10T08:05:29.767Z,1012.17
2018-08-10T08:06:10.278Z,1012.14
2018-08-10T08:06:50.719Z,1012.19
2018-08-10T08:07:31.159Z,1012.17
2018-08-10T08:08:11.661Z,1012.16
2018-08-10T08:08:52.146Z,1012.19
2018-08-10T08:09:32.655Z,1012.16
2018-08-10T08:10:13.176Z,1012.13
2018-08-10T08:10:53.826Z,1012.19
2018-08-10T08:11:34.323Z,1012.14
2018-08-10T08:12:15.051Z,1012.12
2018-08-10T08:12:55.553Z,1012.1
2018-08-10T08:13:36.825Z,1012.1
2018-08-10T08:14:17.264Z,1012.09
2018-08-10T08:14:57.776Z,1012.02
2018-08-10T08:15:38.304Z,1012.09
2018-08-10T08:16:18.800Z,1012.12